createdAt,value
2023-09-11T00:02:18.485Z,101640.97
2023-09-11T00:04:46.147Z,101638.88
2023-09-11T00:07:14.778Z,101633.06
2023-09-11T00:09:42.350Z,101631.03
2023-09-11T00:12:10.056Z,101632.50
2023-09-11T00:14:39.139Z,101626.50
2023-09-11T00:17:06.797Z,101622.59
2023-09-11T00:19:34.438Z,101621.16
2023-09-11T00:22:02.088Z,101618.06
2023-09-11T00:24:29.707Z,101611.84
2023-09-11T00:26:57.747Z,101604.19
2023-09-11T00:29:25.422Z,101601.06
2023-09-11T00:31:54.481Z,101583.25
2023-09-11T00:34:22.134Z,101586.13
2023-09-11T00:36:49.851Z,101581.38
2023-09-11T00:39:17.471Z,101578.47
2023-09-11T00:41:45.265Z,101576.78
2023-09-11T00:44:13.053Z,101580.69
2023-09-11T00:46:41.418Z,101582.16
2023-09-11T00:49:11.128Z,101582.16
2023-09-11T00:51:39.398Z,101582.16
2023-09-11T00:54:07.744Z,101586.06
2023-09-11T00:56:36.025Z,101582.34
2023-09-11T00:59:05.365Z,101579.72
2023-09-11T01:01:33.555Z,101575.19
2023-09-11T01:04:01.400Z,101576.25
2023-09-11T01:06:30.707Z,101569.25
2023-09-11T01:08:59.120Z,101579.00
2023-09-11T01:11:26.794Z,101575.28
2023-09-11T01:13:54.914Z,101569.31
2023-09-11T01:16:29.279Z,101562.91
2023-09-11T01:19:04.000Z,101574.50
2023-09-11T01:22:03.386Z,101576.59
2023-09-11T01:24:46.931Z,101553.00
2023-09-11T01:27:37.283Z,101555.91
2023-09-11T01:30:08.944Z,101555.31
2023-09-11T01:32:38.368Z,101561.13
2023-09-11T01:35:06.761Z,101557.19
2023-09-11T01:37:34.497Z,101554.09
2023-09-11T01:40:02.201Z,101545.84
2023-09-11T01:42:34.884Z,101550.56
2023-09-11T01:45:05.411Z,101543.97
2023-09-11T01:47:35.588Z,101552.47
2023-09-11T01:50:07.087Z,101547.69
2023-09-11T01:52:37.126Z,101546.91
2023-09-11T01:55:06.026Z,101543.16
2023-09-11T01:57:33.722Z,101552.66
2023-09-11T02:00:01.426Z,101553.06
2023-09-11T02:02:30.895Z,101545.84
2023-09-11T02:05:00.044Z,101545.22
2023-09-11T02:07:27.702Z,101543.56
2023-09-11T02:09:55.444Z,101548.94
2023-09-11T02:12:24.187Z,101543.97
2023-09-11T02:14:51.839Z,101543.53
2023-09-11T02:17:19.495Z,101540.25
2023-09-11T02:19:47.128Z,101540.84
2023-09-11T02:22:17.154Z,101542.94
2023-09-11T02:24:44.737Z,101545.44
2023-09-11T02:27:12.322Z,101535.94
2023-09-11T02:29:39.990Z,101531.56
2023-09-11T02:32:07.949Z,101531.16
2023-09-11T02:34:35.555Z,101533.25
2023-09-11T02:37:03.416Z,101530.13
2023-09-11T02:39:32.402Z,101530.13
2023-09-11T02:42:00.337Z,101533.63
2023-09-11T02:44:28.026Z,101535.91
2023-09-11T02:46:55.659Z,101531.38
2023-09-11T02:49:23.236Z,101527.84
2023-09-11T02:51:50.926Z,101529.47
2023-09-11T02:54:20.494Z,101531.53
2023-09-11T02:56:49.513Z,101534.59
2023-09-11T02:59:17.273Z,101530.47
2023-09-11T03:01:45.867Z,101529.66
2023-09-11T03:04:13.522Z,101537.94
2023-09-11T03:06:41.234Z,101532.75
2023-09-11T03:09:09.011Z,101534.00
2023-09-11T03:11:36.760Z,101534.22
2023-09-11T03:14:05.924Z,101530.72
2023-09-11T03:16:33.613Z,101528.22
2023-09-11T03:19:01.206Z,101531.97
2023-09-11T03:21:28.894Z,101523.91
2023-09-11T03:23:56.560Z,101521.63
2023-09-11T03:26:24.452Z,101520.19
2023-09-11T03:28:52.056Z,101522.06
2023-09-11T03:31:21.020Z,101513.75
2023-09-11T03:33:49.015Z,101514.59
2023-09-11T03:36:18.050Z,101520.81
2023-09-11T03:38:46.176Z,101512.09
2023-09-11T03:41:13.899Z,101511.47
2023-09-11T03:43:41.664Z,101510.81
2023-09-11T03:46:09.375Z,101499.66
2023-09-11T03:48:38.492Z,101500.06
2023-09-11T03:51:06.268Z,101499.63
2023-09-11T03:53:35.113Z,101497.75
2023-09-11T03:56:03.530Z,101496.31
2023-09-11T03:58:31.294Z,101504.56
2023-09-11T04:00:58.993Z,101490.53
2023-09-11T04:03:26.782Z,101492.19
2023-09-11T04:05:56.024Z,101483.06
2023-09-11T04:08:23.834Z,101479.78
2023-09-11T04:10:51.544Z,101478.09
2023-09-11T04:13:19.209Z,101473.13
2023-09-11T04:15:46.995Z,101477.50
2023-09-11T04:18:14.813Z,101472.31
2023-09-11T04:20:42.610Z,101482.03
2023-09-11T04:23:11.672Z,101477.25
2023-09-11T04:25:39.495Z,101493.00
2023-09-11T04:28:07.606Z,101487.41
2023-09-11T04:30:35.238Z,101495.66
2023-09-11T04:33:04.191Z,101495.47
2023-09-11T04:35:32.245Z,101489.44
2023-09-11T04:37:59.928Z,101490.84
2023-09-11T04:40:28.900Z,101487.56
2023-09-11T04:42:56.443Z,101491.69
2023-09-11T04:45:24.041Z,101493.97
2023-09-11T04:47:51.960Z,101490.69
2023-09-11T04:50:20.010Z,101491.91
2023-09-11T04:52:47.925Z,101497.47
2023-09-11T04:55:15.573Z,101498.31
2023-09-11T04:57:44.591Z,101488.13
2023-09-11T05:00:13.005Z,101490.84
2023-09-11T05:02:40.777Z,101493.69
2023-09-11T05:05:09.162Z,101485.44
2023-09-11T05:07:36.817Z,101488.53
2023-09-11T05:10:06.695Z,101494.53
2023-09-11T05:12:34.431Z,101495.75
2023-09-11T05:15:04.004Z,101502.38
2023-09-11T05:17:31.685Z,101492.41
2023-09-11T05:19:59.339Z,101498.63
2023-09-11T05:22:27.104Z,101489.09
2023-09-11T05:24:55.047Z,101497.13
2023-09-11T05:27:23.407Z,101491.09
2023-09-11T05:29:51.237Z,101489.38
2023-09-11T05:32:21.467Z,101483.59
2023-09-11T05:34:49.069Z,101482.75
2023-09-11T05:37:16.731Z,101482.75
2023-09-11T05:39:45.011Z,101483.53
2023-09-11T05:42:12.821Z,101479.84
2023-09-11T05:44:40.487Z,101472.75
2023-09-11T05:47:09.731Z,101476.03
2023-09-11T05:49:38.800Z,101467.31
2023-09-11T05:52:07.878Z,101470.34
2023-09-11T05:54:35.919Z,101481.91
2023-09-11T05:57:04.365Z,101472.53
2023-09-11T05:59:32.136Z,101481.16
2023-09-11T06:01:59.786Z,101479.47
2023-09-11T06:04:31.835Z,101474.06
2023-09-11T06:07:00.940Z,101469.06
2023-09-11T06:09:28.655Z,101473.56
2023-09-11T06:11:56.384Z,101476.81
2023-09-11T06:14:24.448Z,101483.50
2023-09-11T06:16:52.078Z,101481.34
2023-09-11T06:19:19.746Z,101483.53
2023-09-11T06:21:47.647Z,101478.91
2023-09-11T06:24:16.683Z,101471.88
2023-09-11T06:26:44.493Z,101466.78
2023-09-11T06:29:13.312Z,101467.97
2023-09-11T06:31:41.061Z,101460.63
2023-09-11T06:34:08.973Z,101453.16
2023-09-11T06:36:36.658Z,101461.09
2023-09-11T06:39:07.034Z,101462.88
2023-09-11T06:41:36.102Z,101462.81
2023-09-11T06:44:03.829Z,101460.59
2023-09-11T06:46:31.596Z,101463.47
2023-09-11T06:48:59.748Z,101459.78
2023-09-11T06:51:27.496Z,101456.53
2023-09-11T06:53:56.388Z,101446.06
2023-09-11T06:56:23.987Z,101442.66
2023-09-11T06:58:53.023Z,101436.66
2023-09-11T07:01:20.769Z,101442.78
2023-09-11T07:03:48.994Z,101435.34
2023-09-11T07:06:16.868Z,101439.91
2023-09-11T07:08:44.708Z,101427.66
2023-09-11T07:11:12.486Z,101423.66
2023-09-11T07:13:40.159Z,101419.94
2023-09-11T07:16:09.371Z,101418.97
2023-09-11T07:18:37.334Z,101412.38
2023-09-11T07:21:06.277Z,101395.00
2023-09-11T07:23:34.950Z,101399.34
2023-09-11T07:26:02.730Z,101397.84
2023-09-11T07:28:30.430Z,101390.81
2023-09-11T07:30:58.720Z,101391.28
2023-09-11T07:33:27.857Z,101382.94
2023-09-11T07:35:55.504Z,101384.53
2023-09-11T07:38:23.210Z,101389.09
2023-09-11T07:40:50.866Z,101383.66
2023-09-11T07:43:18.528Z,101379.94
2023-09-11T07:45:48.090Z,101378.31
2023-09-11T07:48:15.881Z,101370.47
2023-09-11T07:50:44.898Z,101361.78
2023-09-11T07:53:12.790Z,101357.59
2023-09-11T07:55:40.428Z,101354.34
2023-09-11T07:58:10.683Z,101360.38
2023-09-11T08:00:38.380Z,101355.19
2023-09-11T08:03:06.758Z,101357.19
2023-09-11T08:05:34.472Z,101356.09
2023-09-11T08:08:04.000Z,101350.09
2023-09-11T08:10:31.793Z,101361.25
2023-09-11T08:13:01.114Z,101346.00
2023-09-11T08:15:31.105Z,101348.97
2023-09-11T08:17:58.921Z,101346.81
2023-09-11T08:20:26.564Z,101335.09
2023-09-11T08:22:54.169Z,101330.19
2023-09-11T08:25:23.168Z,101334.84
2023-09-11T08:27:50.822Z,101334.28
2023-09-11T08:30:18.493Z,101329.38
2023-09-11T08:32:46.218Z,101330.16
2023-09-11T08:35:13.940Z,101330.97
2023-09-11T08:37:41.568Z,101331.22
2023-09-11T08:40:10.467Z,101326.56
2023-09-11T08:42:39.496Z,101332.28
2023-09-11T08:45:08.231Z,101328.19
2023-09-11T08:47:36.661Z,101321.09
2023-09-11T08:50:07.629Z,101319.72
2023-09-11T08:52:36.287Z,101312.63
2023-09-11T08:55:09.386Z,101304.97
2023-09-11T08:57:41.016Z,101299.25
2023-09-11T09:00:12.886Z,101307.94
2023-09-11T09:02:41.827Z,101309.50
2023-09-11T09:05:10.376Z,101308.31
2023-09-11T09:07:40.317Z,101310.38
2023-09-11T09:10:09.563Z,101307.56
2023-09-11T09:12:38.618Z,101303.09
2023-09-11T09:15:09.500Z,101299.22
2023-09-11T09:17:37.408Z,101308.47
2023-09-11T09:20:06.480Z,101304.31
2023-09-11T09:22:34.074Z,101293.94
2023-09-11T09:25:01.886Z,101294.19
2023-09-11T09:27:32.041Z,101287.22
2023-09-11T09:29:59.658Z,101279.84
2023-09-11T09:32:34.705Z,101264.63
2023-09-11T09:35:02.618Z,101272.81
2023-09-11T09:37:30.475Z,101260.63
2023-09-11T09:39:58.148Z,101250.09
2023-09-11T09:42:25.819Z,101267.59
2023-09-11T09:44:54.701Z,101260.56
2023-09-11T09:47:23.546Z,101251.97
2023-09-11T09:49:53.559Z,101249.84
2023-09-11T09:52:22.981Z,101253.66
2023-09-11T09:54:52.661Z,101249.06
2023-09-11T09:57:22.528Z,101241.75
2023-09-11T09:59:53.404Z,101231.53
2023-09-11T10:02:27.325Z,101238.50
2023-09-11T10:04:58.839Z,101240.47
2023-09-11T10:07:38.843Z,101248.28
2023-09-11T10:10:22.137Z,101239.13
2023-09-11T10:12:54.224Z,101239.88
2023-09-11T10:15:22.625Z,101232.94
2023-09-11T10:17:54.623Z,101230.78
2023-09-11T10:20:24.427Z,101236.03
2023-09-11T10:22:56.079Z,101241.03
2023-09-11T10:25:24.604Z,101229.97
2023-09-11T10:27:58.108Z,101228.16
2023-09-11T10:30:32.940Z,101221.72
2023-09-11T10:33:04.228Z,101218.66
2023-09-11T10:35:40.534Z,101212.78
2023-09-11T10:38:09.969Z,101209.25
2023-09-11T10:40:40.158Z,101206.00
2023-09-11T10:43:08.290Z,101198.47
2023-09-11T10:45:36.532Z,101202.53
2023-09-11T10:48:04.646Z,101200.75
2023-09-11T10:50:38.075Z,101201.28
2023-09-11T10:53:06.942Z,101187.72
2023-09-11T10:55:34.909Z,101183.25
2023-09-11T10:58:05.528Z,101181.19
2023-09-11T11:00:38.679Z,101177.97
2023-09-11T11:03:07.011Z,101175.03
2023-09-11T11:05:36.717Z,101172.28
2023-09-11T11:08:05.123Z,101179.00
2023-09-11T11:10:34.209Z,101179.34
2023-09-11T11:13:09.139Z,101183.69
2023-09-11T11:15:37.489Z,101191.50
2023-09-11T11:18:10.799Z,101188.09
2023-09-11T11:21:06.566Z,101197.09
2023-09-11T11:23:35.916Z,101191.44
2023-09-11T11:26:05.594Z,101196.69
2023-09-11T11:28:41.755Z,101183.78
2023-09-11T11:31:10.445Z,101183.69
2023-09-11T11:33:39.202Z,101183.75
2023-09-11T11:36:09.812Z,101184.16
2023-09-11T11:38:38.428Z,101176.22
2023-09-11T11:41:06.230Z,101177.81
2023-09-11T11:43:34.101Z,101187.00
2023-09-11T11:46:01.744Z,101179.56
2023-09-11T11:48:29.695Z,101176.78
2023-09-11T11:50:57.426Z,101182.81
2023-09-11T11:53:27.401Z,101169.53
2023-09-11T11:55:58.312Z,101172.94
2023-09-11T11:58:27.168Z,101163.91
2023-09-11T12:00:59.957Z,101173.19
2023-09-11T12:03:28.860Z,101179.53
2023-09-11T12:05:57.523Z,101162.22
2023-09-11T12:08:26.769Z,101166.44
2023-09-11T12:10:54.668Z,101170.06
2023-09-11T12:13:34.669Z,101173.81
2023-09-11T12:16:07.661Z,101174.31
2023-09-11T12:18:38.996Z,101177.72
2023-09-11T12:21:08.880Z,101177.59
2023-09-11T12:23:38.138Z,101165.94
2023-09-11T12:26:06.875Z,101169.31
2023-09-11T12:28:35.427Z,101157.81
2023-09-11T12:31:03.335Z,101156.88
2023-09-11T12:33:35.362Z,101165.28
2023-09-11T12:36:05.518Z,101149.09
2023-09-11T12:38:33.528Z,101159.47
2023-09-11T12:41:02.736Z,101152.81
2023-09-11T12:43:31.117Z,101146.16
2023-09-11T12:45:58.965Z,101147.50
2023-09-11T12:48:27.213Z,101139.22
2023-09-11T12:50:55.167Z,101140.03
2023-09-11T12:53:22.905Z,101145.88
2023-09-11T12:55:50.944Z,101135.50
2023-09-11T12:58:19.939Z,101142.13
2023-09-11T13:00:49.658Z,101140.00
2023-09-11T13:03:17.511Z,101132.75
2023-09-11T13:05:46.258Z,101134.22
2023-09-11T13:08:16.749Z,101131.09
2023-09-11T13:10:44.436Z,101133.09
2023-09-11T13:13:21.267Z,101123.69
2023-09-11T13:15:54.219Z,101119.78
2023-09-11T13:18:21.960Z,101110.91
2023-09-11T13:20:49.739Z,101116.75
2023-09-11T13:23:17.450Z,101117.53
2023-09-11T13:25:45.845Z,101110.88
2023-09-11T13:28:13.574Z,101113.31
2023-09-11T13:30:41.205Z,101111.03
2023-09-11T13:33:10.358Z,101107.50
2023-09-11T13:35:38.036Z,101100.19
2023-09-11T13:38:05.702Z,101091.91
2023-09-11T13:40:34.739Z,101095.66
2023-09-11T13:43:02.400Z,101090.97
2023-09-11T13:45:30.850Z,101086.88
2023-09-11T13:47:59.546Z,101087.56
2023-09-11T13:50:29.295Z,101086.09
2023-09-11T13:52:56.934Z,101075.88
2023-09-11T13:55:24.795Z,101078.50
2023-09-11T13:57:52.480Z,101075.75
2023-09-11T14:00:20.942Z,101078.78
2023-09-11T14:02:49.007Z,101073.00
2023-09-11T14:05:16.979Z,101065.19
2023-09-11T14:07:45.970Z,101069.88
2023-09-11T14:10:13.620Z,101066.97
2023-09-11T14:12:41.250Z,101062.28
2023-09-11T14:15:10.330Z,101067.47
2023-09-11T14:17:38.055Z,101068.78
2023-09-11T14:20:08.774Z,101059.69
2023-09-11T14:22:37.576Z,101066.16
2023-09-11T14:25:08.631Z,101055.94
2023-09-11T14:27:36.246Z,101066.31
2023-09-11T14:30:04.197Z,101059.81
2023-09-11T14:32:31.923Z,101064.03
2023-09-11T14:34:59.579Z,101055.66
2023-09-11T14:37:27.229Z,101053.72
2023-09-11T14:39:55.413Z,101057.59
2023-09-11T14:42:25.561Z,101055.78
2023-09-11T14:44:53.190Z,101057.25
2023-09-11T14:47:20.851Z,101049.97
2023-09-11T14:49:48.676Z,101054.03
2023-09-11T14:52:16.272Z,101049.81
2023-09-11T14:54:53.534Z,101049.81
2023-09-11T14:57:24.171Z,101047.66
2023-09-11T14:59:52.046Z,101052.78
2023-09-11T15:02:19.993Z,101043.72
2023-09-11T15:04:51.681Z,101037.56
2023-09-11T15:07:21.086Z,101029.47
2023-09-11T15:09:49.296Z,101026.91
2023-09-11T15:12:17.463Z,101033.06
2023-09-11T15:14:46.689Z,101024.28
2023-09-11T15:17:14.441Z,101033.16
2023-09-11T15:19:42.138Z,101031.69
2023-09-11T15:22:09.744Z,101021.34
2023-09-11T15:24:37.442Z,101027.16
2023-09-11T15:27:05.838Z,101025.22
2023-09-11T15:29:33.529Z,101024.72
2023-09-11T15:34:33.165Z,101020.81
2023-09-11T15:37:00.899Z,101015.13
2023-09-11T15:39:28.519Z,101017.19
2023-09-11T15:41:56.289Z,101009.28
2023-09-11T15:44:24.008Z,101015.72
2023-09-11T15:46:51.639Z,101010.50
2023-09-11T15:49:20.727Z,101006.75
2023-09-11T15:51:48.349Z,101019.47
2023-09-11T15:54:15.984Z,101015.25
2023-09-11T15:56:43.861Z,101010.00
2023-09-11T15:59:12.477Z,101008.19
2023-09-11T16:01:40.147Z,101009.63
2023-09-11T16:04:07.939Z,101011.06
2023-09-11T16:06:38.343Z,101009.69
2023-09-11T16:09:06.497Z,101006.25
2023-09-11T16:11:34.094Z,101009.16
2023-09-11T16:14:01.769Z,101011.22
2023-09-11T16:16:30.313Z,101009.09
2023-09-11T16:18:58.159Z,101015.63
2023-09-11T16:21:38.738Z,101016.56
2023-09-11T16:24:09.427Z,101004.09
2023-09-11T16:26:37.445Z,101012.41
2023-09-11T16:29:05.079Z,101014.16
2023-09-11T16:31:32.766Z,101013.75
2023-09-11T16:34:00.537Z,101020.81
2023-09-11T16:36:28.265Z,101014.09
2023-09-11T16:38:56.005Z,101027.41
2023-09-11T16:41:25.046Z,101017.66
2023-09-11T16:43:52.663Z,101021.13
2023-09-11T16:46:20.289Z,101016.06
2023-09-11T16:48:48.085Z,101021.44
2023-09-11T16:51:15.782Z,101021.66
2023-09-11T16:53:43.529Z,101019.72
2023-09-11T16:56:11.191Z,101022.63
2023-09-11T16:58:40.361Z,101023.72
2023-09-11T17:01:10.293Z,101032.72
2023-09-11T17:03:38.144Z,101019.00
2023-09-11T17:06:06.296Z,101026.34
2023-09-11T17:08:34.132Z,101027.09
2023-09-11T17:11:01.931Z,101021.34
2023-09-11T17:13:29.689Z,101027.53
2023-09-11T17:15:59.114Z,101032.13
2023-09-11T17:18:26.857Z,101024.69
2023-09-11T17:20:54.961Z,101037.97
2023-09-11T17:23:22.713Z,101034.81
2023-09-11T17:25:50.300Z,101040.69
2023-09-11T17:28:17.989Z,101041.63
2023-09-11T17:30:45.603Z,101041.75
2023-09-11T17:33:14.761Z,101061.56
2023-09-11T17:35:42.978Z,101070.44
2023-09-11T17:38:11.810Z,101078.97
2023-09-11T17:40:39.460Z,101086.72
2023-09-11T17:43:07.078Z,101080.75
2023-09-11T17:45:37.714Z,101086.28
2023-09-11T17:48:06.205Z,101081.94
2023-09-11T17:50:35.292Z,101090.19
2023-09-11T17:53:03.125Z,101095.66
2023-09-11T17:55:30.964Z,101091.06
2023-09-11T17:57:58.835Z,101092.72
2023-09-11T18:00:28.662Z,101092.78
2023-09-11T18:02:56.592Z,101104.25
2023-09-11T18:05:24.278Z,101105.63
2023-09-11T18:07:53.290Z,101102.34
2023-09-11T18:10:21.014Z,101110.28
2023-09-11T18:12:48.725Z,101113.56
2023-09-11T18:15:16.455Z,101115.78
2023-09-11T18:17:44.274Z,101117.97
2023-09-11T18:20:12.724Z,101116.66
2023-09-11T18:22:40.428Z,101104.97
2023-09-11T18:25:10.286Z,101112.59
2023-09-11T18:27:39.188Z,101105.28
2023-09-11T18:30:08.485Z,101110.19
2023-09-11T18:32:36.810Z,101117.34
2023-09-11T18:35:04.789Z,101118.72
2023-09-11T18:37:32.680Z,101125.28
2023-09-11T18:40:00.513Z,101139.44
2023-09-11T18:42:29.528Z,101135.34
2023-09-11T18:44:57.224Z,101144.59
2023-09-11T18:47:24.993Z,101146.25
2023-09-11T18:49:52.610Z,101147.91
2023-09-11T18:52:20.234Z,101134.81
2023-09-11T18:54:49.115Z,101139.47
2023-09-11T18:57:16.702Z,101143.00
2023-09-11T18:59:45.699Z,101145.22
2023-09-11T19:02:13.346Z,101144.38
2023-09-11T19:04:41.045Z,101149.56
2023-09-11T19:07:08.881Z,101156.09
2023-09-11T19:09:36.434Z,101153.66
2023-09-11T19:12:04.526Z,101158.56
2023-09-11T19:14:32.207Z,101159.84
2023-09-11T19:17:01.144Z,101161.47
2023-09-11T19:19:28.741Z,101162.84
2023-09-11T19:21:56.380Z,101157.94
2023-09-11T19:24:24.043Z,101160.63
2023-09-11T19:26:53.162Z,101154.91
2023-09-11T19:29:20.808Z,101155.97
2023-09-11T19:31:48.467Z,101167.94
2023-09-11T19:34:17.462Z,101158.94
2023-09-11T19:36:45.124Z,101164.38
2023-09-11T19:39:12.936Z,101173.31
2023-09-11T19:41:40.737Z,101164.31
2023-09-11T19:44:08.474Z,101161.03
2023-09-11T19:46:36.188Z,101160.97
2023-09-11T19:49:05.362Z,101164.50
2023-09-11T19:51:34.430Z,101165.56
2023-09-11T19:54:02.233Z,101170.41
2023-09-11T19:56:30.070Z,101169.03
2023-09-11T19:58:58.043Z,101176.06
2023-09-11T20:01:26.337Z,101174.66
2023-09-11T20:03:54.832Z,101176.00
2023-09-11T20:06:22.649Z,101173.25
2023-09-11T20:08:51.685Z,101172.41
2023-09-11T20:11:19.316Z,101173.44
2023-09-11T20:13:47.463Z,101177.19
2023-09-11T20:16:15.132Z,101179.84
2023-09-11T20:18:43.076Z,101176.28
2023-09-11T20:21:11.145Z,101182.22
2023-09-11T20:23:38.751Z,101174.03
2023-09-11T20:26:07.753Z,101172.09
2023-09-11T20:28:35.351Z,101174.22
2023-09-11T20:31:04.284Z,101176.63
2023-09-11T20:33:32.057Z,101184.19
2023-09-11T20:35:59.766Z,101175.16
2023-09-11T20:38:27.380Z,101184.06
2023-09-11T20:40:55.028Z,101184.03
2023-09-11T20:43:24.081Z,101180.19
2023-09-11T20:45:51.675Z,101188.59
2023-09-11T20:48:19.543Z,101182.31
2023-09-11T20:50:47.414Z,101187.66
2023-09-11T20:53:14.986Z,101181.91
2023-09-11T20:55:42.660Z,101179.16
2023-09-11T20:58:10.733Z,101172.56
2023-09-11T21:00:39.983Z,101173.09
2023-09-11T21:03:07.755Z,101167.59
2023-09-11T21:05:36.779Z,101165.66
2023-09-11T21:08:05.546Z,101173.72
2023-09-11T21:10:33.197Z,101167.44
2023-09-11T21:13:01.026Z,101184.47
2023-09-11T21:15:28.794Z,101178.47
2023-09-11T21:17:58.064Z,101180.63
2023-09-11T21:20:25.681Z,101170.59
2023-09-11T21:22:53.417Z,101175.47
2023-09-11T21:25:21.145Z,101173.56
2023-09-11T21:27:48.847Z,101171.94
2023-09-11T21:30:16.509Z,101171.97
2023-09-11T21:32:44.376Z,101179.28
2023-09-11T21:35:13.369Z,101169.59
2023-09-11T21:37:41.226Z,101175.84
2023-09-11T21:40:10.345Z,101176.41
2023-09-11T21:42:38.040Z,101173.69
2023-09-11T21:45:06.597Z,101171.47
2023-09-11T21:47:34.351Z,101172.53
2023-09-11T21:50:02.068Z,101170.16
2023-09-11T21:52:31.031Z,101172.63
2023-09-11T21:54:58.911Z,101168.31
2023-09-11T21:57:26.773Z,101168.25
2023-09-11T21:59:54.490Z,101157.97
2023-09-11T22:02:22.264Z,101164.50
2023-09-11T22:04:51.341Z,101157.47
2023-09-11T22:07:19.269Z,101165.59
2023-09-11T22:09:48.204Z,101164.84
2023-09-11T22:12:16.015Z,101170.81
2023-09-11T22:14:43.831Z,101169.50
2023-09-11T22:17:12.545Z,101166.53
2023-09-11T22:19:40.402Z,101160.31
2023-09-11T22:22:08.156Z,101159.22
2023-09-11T22:24:35.780Z,101163.00
2023-09-11T22:27:21.051Z,101159.47
2023-09-11T22:29:50.493Z,101158.41
2023-09-11T22:32:18.170Z,101161.13
2023-09-11T22:34:46.010Z,101158.13
2023-09-11T22:37:13.832Z,101158.13
2023-09-11T22:39:41.469Z,101157.06
2023-09-11T22:42:10.560Z,101157.91
2023-09-11T22:44:38.257Z,101156.53
2023-09-11T22:47:05.950Z,101155.44
2023-09-11T22:49:33.723Z,101154.06
2023-09-11T22:52:01.781Z,101160.31
2023-09-11T22:54:30.591Z,101148.81
2023-09-11T22:56:58.322Z,101157.53
2023-09-11T22:59:27.483Z,101153.19
2023-09-11T23:01:55.186Z,101152.03
2023-09-11T23:04:23.227Z,101153.69
2023-09-11T23:06:50.948Z,101151.25
2023-09-11T23:09:18.675Z,101154.47
2023-09-11T23:11:46.291Z,101148.03
2023-09-11T23:14:13.989Z,101150.97
2023-09-11T23:16:43.033Z,101156.59
2023-09-11T23:19:10.788Z,101153.88
2023-09-11T23:21:39.765Z,101156.28
2023-09-11T23:24:14.497Z,101172.03
2023-09-11T23:26:42.865Z,101169.09
2023-09-11T23:29:11.357Z,101175.56
2023-09-11T23:31:39.241Z,101178.78
2023-09-11T23:34:08.230Z,101181.25
2023-09-11T23:36:35.016Z,101187.22
2023-09-11T23:39:04.502Z,101184.00
2023-09-11T23:41:32.321Z,101186.41
2023-09-11T23:44:00.189Z,101180.47
2023-09-11T23:46:30.108Z,101187.28
2023-09-11T23:48:58.321Z,101189.44
2023-09-11T23:51:27.698Z,101192.16
2023-09-11T23:53:55.394Z,101197.34
2023-09-11T23:56:22.997Z,101205.72
2023-09-11T23:58:50.569Z,101207.28
